sensor_id;sensor_type;location;lat;lon;timestamp;pressure;altitude;pressure_sealevel;temperature;humidity
27712;BME280;2377;51.734;8.950;2024-01-16T00:00:34;96666.78;;;0.48;100.00
27712;BME280;2377;51.734;8.950;2024-01-16T00:03:01;96669.38;;;0.54;100.00
27712;BME280;2377;51.734;8.950;2024-01-16T00:05:28;96658.56;;;0.39;100.00
27712;BME280;2377;51.734;8.950;2024-01-16T00:07:56;96674.91;;;0.50;100.00
27712;BME280;2377;51.734;8.950;2024-01-16T00:10:25;96684.38;;;0.33;100.00
27712;BME280;2377;51.734;8.950;2024-01-16T00:12:52;96672.84;;;0.38;100.00
27712;BME280;2377;51.734;8.950;2024-01-16T00:15:20;96682.66;;;0.33;100.00
27712;BME280;2377;51.734;8.950;2024-01-16T00:17:48;96690.63;;;0.22;100.00
27712;BME280;2377;51.734;8.950;2024-01-16T00:20:15;96701.19;;;0.32;100.00
27712;BME280;2377;51.734;8.950;2024-01-16T00:22:42;96698.75;;;0.39;100.00
27712;BME280;2377;51.734;8.950;2024-01-16T00:25:11;96701.03;;;0.34;100.00
27712;BME280;2377;51.734;8.950;2024-01-16T00:27:38;96709.69;;;0.31;100.00
27712;BME280;2377;51.734;8.950;2024-01-16T00:30:06;96710.09;;;0.35;100.00
27712;BME280;2377;51.734;8.950;2024-01-16T00:32:34;96705.53;;;0.24;100.00
27712;BME280;2377;51.734;8.950;2024-01-16T00:35:02;96717.88;;;0.40;100.00
27712;BME280;2377;51.734;8.950;2024-01-16T00:37:29;96714.88;;;0.30;100.00
27712;BME280;2377;51.734;8.950;2024-01-16T00:39:56;96711.69;;;0.36;100.00
27712;BME280;2377;51.734;8.950;2024-01-16T00:42:25;96717.56;;;0.28;100.00
27712;BME280;2377;51.734;8.950;2024-01-16T00:44:52;96717.56;;;0.28;100.00
27712;BME280;2377;51.734;8.950;2024-01-16T00:47:20;96724.56;;;0.33;100.00
27712;BME280;2377;51.734;8.950;2024-01-16T00:49:47;96730.91;;;0.29;100.00
27712;BME280;2377;51.734;8.950;2024-01-16T00:52:14;96725.78;;;0.37;100.00
27712;BME280;2377;51.734;8.950;2024-01-16T00:54:42;96730.81;;;0.37;100.00
27712;BME280;2377;51.734;8.950;2024-01-16T00:57:09;96731.00;;;0.35;100.00
27712;BME280;2377;51.734;8.950;2024-01-16T00:59:38;96735.34;;;0.27;100.00
27712;BME280;2377;51.734;8.950;2024-01-16T01:02:05;96729.25;;;0.21;100.00
27712;BME280;2377;51.734;8.950;2024-01-16T01:04:33;96745.44;;;0.18;100.00
27712;BME280;2377;51.734;8.950;2024-01-16T01:07:00;96741.03;;;0.20;100.00
27712;BME280;2377;51.734;8.950;2024-01-16T01:09:27;96734.78;;;0.16;100.00
27712;BME280;2377;51.734;8.950;2024-01-16T01:11:54;96743.13;;;0.17;100.00
27712;BME280;2377;51.734;8.950;2024-01-16T01:14:21;96743.47;;;0.14;100.00
27712;BME280;2377;51.734;8.950;2024-01-16T01:16:49;96742.53;;;0.15;100.00
27712;BME280;2377;51.734;8.950;2024-01-16T01:19:17;96738.69;;;0.04;100.00
27712;BME280;2377;51.734;8.950;2024-01-16T01:21:44;96749.59;;;0.11;100.00
27712;BME280;2377;51.734;8.950;2024-01-16T01:24:11;96765.66;;;0.10;100.00
27712;BME280;2377;51.734;8.950;2024-01-16T01:26:38;96761.50;;;0.17;100.00
27712;BME280;2377;51.734;8.950;2024-01-16T01:29:05;96769.19;;;0.16;100.00
27712;BME280;2377;51.734;8.950;2024-01-16T01:31:32;96771.53;;;0.17;100.00
27712;BME280;2377;51.734;8.950;2024-01-16T01:34:01;96775.34;;;0.13;100.00
27712;BME280;2377;51.734;8.950;2024-01-16T01:36:28;96783.84;;;0.12;100.00
27712;BME280;2377;51.734;8.950;2024-01-16T01:38:55;96783.38;;;0.09;100.00
27712;BME280;2377;51.734;8.950;2024-01-16T01:41:22;96777.50;;;0.16;100.00
27712;BME280;2377;51.734;8.950;2024-01-16T01:43:49;96788.16;;;0.18;100.00
27712;BME280;2377;51.734;8.950;2024-01-16T01:46:18;96786.41;;;0.04;100.00
27712;BME280;2377;51.734;8.950;2024-01-16T01:48:47;96790.97;;;0.24;100.00
27712;BME280;2377;51.734;8.950;2024-01-16T01:51:19;96795.09;;;0.16;100.00
27712;BME280;2377;51.734;8.950;2024-01-16T01:53:49;96794.75;;;0.19;100.00
27712;BME280;2377;51.734;8.950;2024-01-16T01:56:19;96792.75;;;0.15;100.00
27712;BME280;2377;51.734;8.950;2024-01-16T01:58:49;96791.69;;;0.09;100.00
27712;BME280;2377;51.734;8.950;2024-01-16T02:01:21;96793.19;;;0.18;100.00
27712;BME280;2377;51.734;8.950;2024-01-16T02:03:51;96785.53;;;-0.03;100.00
27712;BME280;2377;51.734;8.950;2024-01-16T02:06:20;96805.88;;;0.02;100.00
27712;BME280;2377;51.734;8.950;2024-01-16T02:08:47;96812.75;;;0.08;100.00
27712;BME280;2377;51.734;8.950;2024-01-16T02:11:15;96804.50;;;-0.01;100.00
27712;BME280;2377;51.734;8.950;2024-01-16T02:13:42;96807.72;;;0.08;100.00
27712;BME280;2377;51.734;8.950;2024-01-16T02:16:18;96820.63;;;0.05;100.00
27712;BME280;2377;51.734;8.950;2024-01-16T02:18:46;96817.00;;;0.08;100.00
27712;BME280;2377;51.734;8.950;2024-01-16T02:21:17;96821.69;;;0.11;100.00
27712;BME280;2377;51.734;8.950;2024-01-16T02:23:47;96819.63;;;0.14;100.00
27712;BME280;2377;51.734;8.950;2024-01-16T02:26:14;96809.84;;;0.19;100.00
27712;BME280;2377;51.734;8.950;2024-01-16T02:28:42;96812.97;;;0.22;100.00
27712;BME280;2377;51.734;8.950;2024-01-16T02:31:09;96822.56;;;0.18;100.00
27712;BME280;2377;51.734;8.950;2024-01-16T02:33:36;96815.19;;;0.16;100.00
27712;BME280;2377;51.734;8.950;2024-01-16T02:36:04;96821.69;;;0.26;100.00
27712;BME280;2377;51.734;8.950;2024-01-16T02:38:31;96820.91;;;0.25;100.00
27712;BME280;2377;51.734;8.950;2024-01-16T02:40:59;96824.63;;;0.14;100.00
27712;BME280;2377;51.734;8.950;2024-01-16T02:43:26;96834.00;;;0.20;100.00
27712;BME280;2377;51.734;8.950;2024-01-16T02:45:53;96831.47;;;0.20;100.00
27712;BME280;2377;51.734;8.950;2024-01-16T02:48:20;96826.13;;;0.24;100.00
27712;BME280;2377;51.734;8.950;2024-01-16T02:50:47;96822.19;;;0.21;100.00
27712;BME280;2377;51.734;8.950;2024-01-16T02:53:15;96823.38;;;-0.05;100.00
27712;BME280;2377;51.734;8.950;2024-01-16T02:55:42;96835.25;;;0.02;100.00
27712;BME280;2377;51.734;8.950;2024-01-16T02:58:10;96840.66;;;0.13;100.00
27712;BME280;2377;51.734;8.950;2024-01-16T03:00:37;96836.06;;;0.17;100.00
27712;BME280;2377;51.734;8.950;2024-01-16T03:03:04;96832.19;;;0.14;100.00
27712;BME280;2377;51.734;8.950;2024-01-16T03:05:32;96821.53;;;0.12;100.00
27712;BME280;2377;51.734;8.950;2024-01-16T03:07:59;96823.25;;;0.12;100.00
27712;BME280;2377;51.734;8.950;2024-01-16T03:10:26;96822.09;;;-0.01;100.00
27712;BME280;2377;51.734;8.950;2024-01-16T03:12:53;96824.09;;;0.04;100.00
27712;BME280;2377;51.734;8.950;2024-01-16T03:15:21;96829.06;;;0.12;100.00
27712;BME280;2377;51.734;8.950;2024-01-16T03:17:49;96832.75;;;0.16;100.00
27712;BME280;2377;51.734;8.950;2024-01-16T03:20:17;96831.16;;;0.24;100.00
27712;BME280;2377;51.734;8.950;2024-01-16T03:22:44;96825.34;;;0.23;100.00
27712;BME280;2377;51.734;8.950;2024-01-16T03:25:11;96827.16;;;0.14;100.00
27712;BME280;2377;51.734;8.950;2024-01-16T03:27:39;96835.53;;;0.07;100.00
27712;BME280;2377;51.734;8.950;2024-01-16T03:30:08;96829.38;;;0.09;100.00
27712;BME280;2377;51.734;8.950;2024-01-16T03:32:37;96818.75;;;0.07;100.00
27712;BME280;2377;51.734;8.950;2024-01-16T03:35:06;96826.59;;;0.04;100.00
27712;BME280;2377;51.734;8.950;2024-01-16T03:37:33;96824.44;;;0.16;100.00
27712;BME280;2377;51.734;8.950;2024-01-16T03:40:01;96825.22;;;0.16;100.00
27712;BME280;2377;51.734;8.950;2024-01-16T03:42:28;96834.06;;;0.12;100.00
27712;BME280;2377;51.734;8.950;2024-01-16T03:44:55;96824.34;;;0.09;100.00
27712;BME280;2377;51.734;8.950;2024-01-16T03:47:22;96832.69;;;0.10;100.00
27712;BME280;2377;51.734;8.950;2024-01-16T03:49:51;96836.72;;;-0.04;100.00
27712;BME280;2377;51.734;8.950;2024-01-16T03:52:18;96844.78;;;0.06;100.00
27712;BME280;2377;51.734;8.950;2024-01-16T03:54:45;96841.00;;;0.10;100.00
27712;BME280;2377;51.734;8.950;2024-01-16T03:57:12;96847.75;;;0.10;100.00
27712;BME280;2377;51.734;8.950;2024-01-16T03:59:39;96849.16;;;0.12;100.00
27712;BME280;2377;51.734;8.950;2024-01-16T04:02:07;96842.72;;;0.10;100.00
27712;BME280;2377;51.734;8.950;2024-01-16T04:04:34;96848.59;;;0.02;100.00
27712;BME280;2377;51.734;8.950;2024-01-16T04:07:03;96841.34;;;0.07;100.00
27712;BME280;2377;51.734;8.950;2024-01-16T04:09:30;96839.41;;;0.09;100.00
27712;BME280;2377;51.734;8.950;2024-01-16T04:11:57;96837.72;;;0.10;100.00
27712;BME280;2377;51.734;8.950;2024-01-16T04:14:24;96844.75;;;0.14;100.00
27712;BME280;2377;51.734;8.950;2024-01-16T04:16:51;96849.94;;;0.13;100.00
27712;BME280;2377;51.734;8.950;2024-01-16T04:19:18;96848.94;;;-0.01;100.00
27712;BME280;2377;51.734;8.950;2024-01-16T04:21:45;96847.91;;;0.08;100.00
27712;BME280;2377;51.734;8.950;2024-01-16T04:24:14;96854.16;;;0.12;100.00
27712;BME280;2377;51.734;8.950;2024-01-16T04:26:41;96847.06;;;0.16;100.00
27712;BME280;2377;51.734;8.950;2024-01-16T04:29:08;96858.31;;;0.05;100.00
27712;BME280;2377;51.734;8.950;2024-01-16T04:31:39;96852.47;;;0.05;100.00
27712;BME280;2377;51.734;8.950;2024-01-16T04:34:07;96853.72;;;0.09;100.00
27712;BME280;2377;51.734;8.950;2024-01-16T04:36:34;96851.41;;;0.07;100.00
27712;BME280;2377;51.734;8.950;2024-01-16T04:39:01;96861.09;;;0.10;100.00
27712;BME280;2377;51.734;8.950;2024-01-16T04:41:30;96851.41;;;0.07;100.00
27712;BME280;2377;51.734;8.950;2024-01-16T04:43:57;96852.44;;;0.13;100.00
27712;BME280;2377;51.734;8.950;2024-01-16T04:46:24;96853.66;;;0.17;100.00
27712;BME280;2377;51.734;8.950;2024-01-16T04:48:52;96849.66;;;0.08;100.00
27712;BME280;2377;51.734;8.950;2024-01-16T04:51:19;96850.78;;;0.05;100.00
27712;BME280;2377;51.734;8.950;2024-01-16T04:53:46;96852.78;;;0.10;100.00
27712;BME280;2377;51.734;8.950;2024-01-16T04:56:13;96852.59;;;0.11;100.00
27712;BME280;2377;51.734;8.950;2024-01-16T04:58:41;96849.47;;;0.09;100.00
27712;BME280;2377;51.734;8.950;2024-01-16T05:01:08;96863.25;;;0.13;100.00
27712;BME280;2377;51.734;8.950;2024-01-16T05:03:36;96851.97;;;0.09;100.00
27712;BME280;2377;51.734;8.950;2024-01-16T05:06:03;96849.03;;;0.06;100.00
27712;BME280;2377;51.734;8.950;2024-01-16T05:08:30;96852.31;;;0.06;100.00
27712;BME280;2377;51.734;8.950;2024-01-16T05:10:58;96851.44;;;-0.01;100.00
27712;BME280;2377;51.734;8.950;2024-01-16T05:13:25;96844.78;;;0.06;100.00
27712;BME280;2377;51.734;8.950;2024-01-16T05:15:54;96850.44;;;0.08;100.00
27712;BME280;2377;51.734;8.950;2024-01-16T05:18:21;96843.66;;;0.09;100.00
27712;BME280;2377;51.734;8.950;2024-01-16T05:20:48;96846.69;;;0.04;100.00
27712;BME280;2377;51.734;8.950;2024-01-16T05:23:15;96840.53;;;0.07;100.00
27712;BME280;2377;51.734;8.950;2024-01-16T05:25:42;96851.09;;;0.02;100.00
27712;BME280;2377;51.734;8.950;2024-01-16T05:28:09;96840.72;;;0.05;100.00
27712;BME280;2377;51.734;8.950;2024-01-16T05:30:36;96844.78;;;0.06;100.00
27712;BME280;2377;51.734;8.950;2024-01-16T05:33:05;96838.22;;;0.05;100.00
27712;BME280;2377;51.734;8.950;2024-01-16T05:35:33;96835.72;;;0.05;100.00
27712;BME280;2377;51.734;8.950;2024-01-16T05:38:00;96846.38;;;0.07;100.00
27712;BME280;2377;51.734;8.950;2024-01-16T05:40:27;96845.69;;;0.13;100.00
27712;BME280;2377;51.734;8.950;2024-01-16T05:42:54;96836.63;;;0.04;100.00
27712;BME280;2377;51.734;8.950;2024-01-16T05:45:22;96839.94;;;0.05;100.00
27712;BME280;2377;51.734;8.950;2024-01-16T05:47:49;96840.66;;;0.13;100.00
27712;BME280;2377;51.734;8.950;2024-01-16T05:50:17;96844.78;;;0.06;100.00
27712;BME280;2377;51.734;8.950;2024-01-16T05:52:45;96844.03;;;0.06;100.00
27712;BME280;2377;51.734;8.950;2024-01-16T05:55:12;96849.38;;;0.03;100.00
27712;BME280;2377;51.734;8.950;2024-01-16T05:57:41;96845.47;;;0.00;100.00
27712;BME280;2377;51.734;8.950;2024-01-16T06:00:10;96850.81;;;-0.03;100.00
27712;BME280;2377;51.734;8.950;2024-01-16T06:02:37;96853.28;;;0.05;100.00
27712;BME280;2377;51.734;8.950;2024-01-16T06:05:05;96850.94;;;0.04;100.00
27712;BME280;2377;51.734;8.950;2024-01-16T06:07:34;96856.72;;;0.04;100.00
27712;BME280;2377;51.734;8.950;2024-01-16T06:10:01;96851.44;;;-0.01;100.00
27712;BME280;2377;51.734;8.950;2024-01-16T06:12:28;96864.34;;;-0.04;100.00
27712;BME280;2377;51.734;8.950;2024-01-16T06:14:55;96856.47;;;-0.01;100.00
27712;BME280;2377;51.734;8.950;2024-01-16T06:17:23;96853.44;;;0.04;100.00
27712;BME280;2377;51.734;8.950;2024-01-16T06:19:50;96859.44;;;0.03;100.00
27712;BME280;2377;51.734;8.950;2024-01-16T06:22:17;96856.63;;;-0.03;100.00
27712;BME280;2377;51.734;8.950;2024-01-16T06:24:46;96854.72;;;-0.01;100.00
27712;BME280;2377;51.734;8.950;2024-01-16T06:27:13;96862.44;;;-0.02;100.00
27712;BME280;2377;51.734;8.950;2024-01-16T06:29:44;96853.59;;;0.02;100.00
27712;BME280;2377;51.734;8.950;2024-01-16T06:32:12;96858.97;;;-0.01;100.00
27712;BME280;2377;51.734;8.950;2024-01-16T06:34:39;96860.97;;;0.04;100.00
27712;BME280;2377;51.734;8.950;2024-01-16T06:37:08;96863.22;;;-0.02;100.00
27712;BME280;2377;51.734;8.950;2024-01-16T06:39:37;96867.00;;;-0.06;100.00
27712;BME280;2377;51.734;8.950;2024-01-16T06:42:07;96860.94;;;-0.11;100.00
27712;BME280;2377;51.734;8.950;2024-01-16T06:44:34;96857.44;;;-0.02;100.00
27712;BME280;2377;51.734;8.950;2024-01-16T06:47:02;96863.66;;;0.02;100.00
27712;BME280;2377;51.734;8.950;2024-01-16T06:49:29;96876.28;;;-0.06;100.00
27712;BME280;2377;51.734;8.950;2024-01-16T06:51:56;96857.44;;;-0.02;100.00
27712;BME280;2377;51.734;8.950;2024-01-16T06:54:24;96863.50;;;0.04;100.00
27712;BME280;2377;51.734;8.950;2024-01-16T06:56:51;96870.38;;;0.10;100.00
27712;BME280;2377;51.734;8.950;2024-01-16T06:59:19;96863.25;;;0.13;100.00
27712;BME280;2377;51.734;8.950;2024-01-16T07:01:50;96866.13;;;0.10;100.00
27712;BME280;2377;51.734;8.950;2024-01-16T07:04:17;96870.16;;;-0.04;100.00
27712;BME280;2377;51.734;8.950;2024-01-16T07:06:44;96861.44;;;0.07;100.00
27712;BME280;2377;51.734;8.950;2024-01-16T07:09:12;96867.66;;;0.11;100.00
27712;BME280;2377;51.734;8.950;2024-01-16T07:11:39;96872.69;;;0.11;100.00
27712;BME280;2377;51.734;8.950;2024-01-16T07:14:09;96872.25;;;0.08;100.00
27712;BME280;2377;51.734;8.950;2024-01-16T07:16:37;96879.06;;;-0.01;100.00
27712;BME280;2377;51.734;8.950;2024-01-16T07:19:05;96885.25;;;0.11;100.00
27712;BME280;2377;51.734;8.950;2024-01-16T07:21:32;96880.94;;;0.20;100.00
27712;BME280;2377;51.734;8.950;2024-01-16T07:23:59;96884.06;;;0.22;100.00
27712;BME280;2377;51.734;8.950;2024-01-16T07:26:26;96878.94;;;0.15;100.00
27712;BME280;2377;51.734;8.950;2024-01-16T07:28:55;96876.44;;;0.15;100.00
27712;BME280;2377;51.734;8.950;2024-01-16T07:31:23;96875.81;;;0.13;100.00
27712;BME280;2377;51.734;8.950;2024-01-16T07:33:52;96880.19;;;0.19;100.00
27712;BME280;2377;51.734;8.950;2024-01-16T07:36:19;96877.22;;;0.16;100.00
27712;BME280;2377;51.734;8.950;2024-01-16T07:38:46;96877.16;;;0.24;100.00
27712;BME280;2377;51.734;8.950;2024-01-16T07:41:13;96885.53;;;0.16;100.00
27712;BME280;2377;51.734;8.950;2024-01-16T07:43:40;96877.56;;;0.13;100.00
27712;BME280;2377;51.734;8.950;2024-01-16T07:46:07;96889.34;;;0.12;100.00
27712;BME280;2377;51.734;8.950;2024-01-16T07:48:34;96879.81;;;0.23;100.00
27712;BME280;2377;51.734;8.950;2024-01-16T07:51:03;96885.81;;;0.22;100.00
27712;BME280;2377;51.734;8.950;2024-01-16T07:53:31;96882.06;;;0.17;100.00
27712;BME280;2377;51.734;8.950;2024-01-16T07:56:02;96888.09;;;0.08;100.00
27712;BME280;2377;51.734;8.950;2024-01-16T07:58:29;96897.50;;;0.14;100.00
27712;BME280;2377;51.734;8.950;2024-01-16T08:00:56;96893.66;;;0.18;100.00
27712;BME280;2377;51.734;8.950;2024-01-16T08:03:23;96893.34;;;0.22;100.00
27712;BME280;2377;51.734;8.950;2024-01-16T08:05:50;96892.22;;;0.24;100.00
27712;BME280;2377;51.734;8.950;2024-01-16T08:08:18;96900.81;;;0.30;100.00
27712;BME280;2377;51.734;8.950;2024-01-16T08:10:46;96898.03;;;0.25;100.00
27712;BME280;2377;51.734;8.950;2024-01-16T08:13:13;96904.03;;;0.24;100.00
27712;BME280;2377;51.734;8.950;2024-01-16T08:15:40;96905.50;;;0.33;100.00
27712;BME280;2377;51.734;8.950;2024-01-16T08:18:07;96901.78;;;0.29;100.00
27712;BME280;2377;51.734;8.950;2024-01-16T08:20:34;96897.38;;;0.31;100.00
27712;BME280;2377;51.734;8.950;2024-01-16T08:23:01;96908.94;;;0.17;100.00
27712;BME280;2377;51.734;8.950;2024-01-16T08:25:30;96905.41;;;0.26;100.00
27712;BME280;2377;51.734;8.950;2024-01-16T08:27:57;96907.41;;;0.31;100.00
27712;BME280;2377;51.734;8.950;2024-01-16T08:30:25;96916.34;;;0.33;100.00
27712;BME280;2377;51.734;8.950;2024-01-16T08:32:52;96908.00;;;0.33;100.00
27712;BME280;2377;51.734;8.950;2024-01-16T08:35:19;96909.31;;;0.29;100.00
27712;BME280;2377;51.734;8.950;2024-01-16T08:37:47;96911.81;;;0.29;100.00
27712;BME280;2377;51.734;8.950;2024-01-16T08:40:15;96908.00;;;0.33;100.00
27712;BME280;2377;51.734;8.950;2024-01-16T08:42:44;96920.41;;;0.34;100.00
27712;BME280;2377;51.734;8.950;2024-01-16T08:45:11;96911.41;;;0.40;100.00
27712;BME280;2377;51.734;8.950;2024-01-16T08:47:38;96908.88;;;0.40;100.00
27712;BME280;2377;51.734;8.950;2024-01-16T08:50:07;96919.13;;;0.38;100.00
27712;BME280;2377;51.734;8.950;2024-01-16T08:52:36;96924.50;;;0.35;100.00
27712;BME280;2377;51.734;8.950;2024-01-16T08:55:05;96923.69;;;0.35;100.00
27712;BME280;2377;51.734;8.950;2024-01-16T08:57:32;96921.03;;;0.36;100.00
27712;BME280;2377;51.734;8.950;2024-01-16T09:00:00;96925.03;;;0.46;100.00
27712;BME280;2377;51.734;8.950;2024-01-16T09:02:28;96924.88;;;0.47;100.00
27712;BME280;2377;51.734;8.950;2024-01-16T09:04:56;96922.16;;;0.49;100.00
27712;BME280;2377;51.734;8.950;2024-01-16T09:07:24;96924.41;;;0.44;100.00
27712;BME280;2377;51.734;8.950;2024-01-16T09:09:51;96928.16;;;0.48;100.00
27712;BME280;2377;51.734;8.950;2024-01-16T09:12:18;96922.00;;;0.50;100.00
27712;BME280;2377;51.734;8.950;2024-01-16T09:14:45;96919.84;;;0.47;100.00
27712;BME280;2377;51.734;8.950;2024-01-16T09:17:14;96923.56;;;0.51;100.00
27712;BME280;2377;51.734;8.950;2024-01-16T09:19:41;96934.50;;;0.58;100.00
27712;BME280;2377;51.734;8.950;2024-01-16T09:22:08;96916.03;;;0.51;100.00
27712;BME280;2377;51.734;8.950;2024-01-16T09:24:35;96921.66;;;0.53;100.00
27712;BME280;2377;51.734;8.950;2024-01-16T09:27:02;96924.78;;;0.55;100.00
27712;BME280;2377;51.734;8.950;2024-01-16T09:29:32;96924.16;;;0.53;100.00
27712;BME280;2377;51.734;8.950;2024-01-16T09:31:59;96921.31;;;0.56;100.00
27712;BME280;2377;51.734;8.950;2024-01-16T09:34:28;96929.16;;;0.61;100.00
27712;BME280;2377;51.734;8.950;2024-01-16T09:36:55;96932.94;;;0.57;100.00
27712;BME280;2377;51.734;8.950;2024-01-16T09:39:25;96933.22;;;0.62;100.00
27712;BME280;2377;51.734;8.950;2024-01-16T09:41:52;96926.53;;;0.55;100.00
27712;BME280;2377;51.734;8.950;2024-01-16T09:44:22;96929.38;;;0.52;100.00
27712;BME280;2377;51.734;8.950;2024-01-16T09:46:50;96936.41;;;0.56;100.00
27712;BME280;2377;51.734;8.950;2024-01-16T09:49:19;96926.41;;;0.48;100.00
27712;BME280;2377;51.734;8.950;2024-01-16T09:51:48;96935.63;;;0.56;100.00
27712;BME280;2377;51.734;8.950;2024-01-16T09:54:15;96938.84;;;0.65;100.00
27712;BME280;2377;51.734;8.950;2024-01-16T09:56:43;96934.16;;;0.61;100.00
27712;BME280;2377;51.734;8.950;2024-01-16T09:59:16;96935.72;;;0.62;100.00
27712;BME280;2377;51.734;8.950;2024-01-16T10:01:44;96931.72;;;0.53;100.00
27712;BME280;2377;51.734;8.950;2024-01-16T10:04:12;96938.09;;;0.41;100.00
27712;BME280;2377;51.734;8.950;2024-01-16T10:06:39;96939.00;;;0.48;100.00
27712;BME280;2377;51.734;8.950;2024-01-16T10:09:09;96939.88;;;0.55;100.00
27712;BME280;2377;51.734;8.950;2024-01-16T10:11:38;96930.69;;;0.62;100.00
27712;BME280;2377;51.734;8.950;2024-01-16T10:14:06;96932.59;;;0.60;100.00
27712;BME280;2377;51.734;8.950;2024-01-16T10:16:56;96934.06;;;0.55;100.00
27712;BME280;2377;51.734;8.950;2024-01-16T10:19:26;96938.38;;;0.46;100.00
27712;BME280;2377;51.734;8.950;2024-01-16T10:22:01;96943.66;;;0.51;100.00
27712;BME280;2377;51.734;8.950;2024-01-16T10:24:29;96946.19;;;0.51;100.00
27712;BME280;2377;51.734;8.950;2024-01-16T10:27:01;96941.34;;;0.50;100.00
27712;BME280;2377;51.734;8.950;2024-01-16T10:29:29;96937.94;;;0.43;100.00
27712;BME280;2377;51.734;8.950;2024-01-16T10:31:57;96934.31;;;0.45;100.00
27712;BME280;2377;51.734;8.950;2024-01-16T10:34:24;96933.50;;;0.45;100.00
27712;BME280;2377;51.734;8.950;2024-01-16T10:36:58;96932.06;;;0.50;100.00
27712;BME280;2377;51.734;8.950;2024-01-16T10:39:25;96931.50;;;0.40;100.00
27712;BME280;2377;51.734;8.950;2024-01-16T10:41:57;96927.03;;;0.50;100.00
27712;BME280;2377;51.734;8.950;2024-01-16T10:44:24;96940.97;;;0.38;100.00
27712;BME280;2377;51.734;8.950;2024-01-16T10:47:09;96928.81;;;0.41;100.00
27712;BME280;2377;51.734;8.950;2024-01-16T10:49:37;96927.97;;;0.49;100.00
27712;BME280;2377;51.734;8.950;2024-01-16T10:52:10;96933.81;;;0.50;100.00
27712;BME280;2377;51.734;8.950;2024-01-16T10:54:41;96927.03;;;0.50;99.88
27712;BME280;2377;51.734;8.950;2024-01-16T10:57:13;96934.38;;;0.52;99.93
27712;BME280;2377;51.734;8.950;2024-01-16T10:59:49;96937.44;;;0.47;99.96
27712;BME280;2377;51.734;8.950;2024-01-16T11:02:24;96921.44;;;0.40;98.43
27712;BME280;2377;51.734;8.950;2024-01-16T11:04:55;96929.84;;;0.32;98.66
27712;BME280;2377;51.734;8.950;2024-01-16T11:07:24;96935.31;;;0.36;98.00
27712;BME280;2377;51.734;8.950;2024-01-16T11:09:53;96924.91;;;0.39;97.90
27712;BME280;2377;51.734;8.950;2024-01-16T11:12:23;96928.06;;;0.41;97.89
27712;BME280;2377;51.734;8.950;2024-01-16T11:14:52;96922.69;;;0.44;98.11
27712;BME280;2377;51.734;8.950;2024-01-16T11:17:22;96919.84;;;0.47;97.51
27712;BME280;2377;51.734;8.950;2024-01-16T11:19:50;96930.28;;;0.36;96.74
27712;BME280;2377;51.734;8.950;2024-01-16T11:22:20;96935.50;;;0.49;96.88
27712;BME280;2377;51.734;8.950;2024-01-16T11:25:10;96929.72;;;0.49;96.42
27712;BME280;2377;51.734;8.950;2024-01-16T11:27:42;96934.84;;;0.55;96.38
27712;BME280;2377;51.734;8.950;2024-01-16T11:30:11;96937.47;;;0.62;95.74
27712;BME280;2377;51.734;8.950;2024-01-16T11:32:40;96942.09;;;0.73;94.66
27712;BME280;2377;51.734;8.950;2024-01-16T11:35:08;96936.25;;;0.73;91.94
27712;BME280;2377;51.734;8.950;2024-01-16T11:37:41;96934.03;;;0.78;92.01
27712;BME280;2377;51.734;8.950;2024-01-16T11:40:23;96923.63;;;0.81;90.99
27712;BME280;2377;51.734;8.950;2024-01-16T11:42:54;96929.25;;;0.83;89.83
27712;BME280;2377;51.734;8.950;2024-01-16T11:45:50;96929.69;;;0.87;91.26
27712;BME280;2377;51.734;8.950;2024-01-16T11:48:17;96933.41;;;0.91;91.67
27712;BME280;2377;51.734;8.950;2024-01-16T11:50:46;96925.97;;;0.82;90.99
27712;BME280;2377;51.734;8.950;2024-01-16T11:53:36;96918.94;;;0.78;91.27
27712;BME280;2377;51.734;8.950;2024-01-16T11:59:49;96924.13;;;0.76;90.72
27712;BME280;2377;51.734;8.950;2024-01-16T12:02:37;96935.94;;;0.76;90.55
27712;BME280;2377;51.734;8.950;2024-01-16T12:05:06;96917.28;;;0.85;89.83
27712;BME280;2377;51.734;8.950;2024-01-16T12:07:45;96923.16;;;0.77;89.39
27712;BME280;2377;51.734;8.950;2024-01-16T12:10:17;96918.84;;;0.86;89.90
27712;BME280;2377;51.734;8.950;2024-01-16T12:12:45;96925.50;;;0.79;88.91
27712;BME280;2377;51.734;8.950;2024-01-16T12:15:18;96922.47;;;0.83;89.56
27712;BME280;2377;51.734;8.950;2024-01-16T12:17:57;96928.47;;;0.82;89.84
27712;BME280;2377;51.734;8.950;2024-01-16T12:20:29;96917.09;;;0.87;89.39
27712;BME280;2377;51.734;8.950;2024-01-16T12:22:59;96916.84;;;0.81;89.10
27712;BME280;2377;51.734;8.950;2024-01-16T12:25:28;96923.34;;;0.91;88.91
27712;BME280;2377;51.734;8.950;2024-01-16T12:27:57;96924.91;;;0.92;88.95
27712;BME280;2377;51.734;8.950;2024-01-16T12:30:28;96927.78;;;0.89;88.00
27712;BME280;2377;51.734;8.950;2024-01-16T12:33:06;96922.47;;;0.83;88.08
27712;BME280;2377;51.734;8.950;2024-01-16T12:35:35;96916.69;;;0.83;88.16
27712;BME280;2377;51.734;8.950;2024-01-16T12:38:04;96915.41;;;0.87;87.42
27712;BME280;2377;51.734;8.950;2024-01-16T12:40:32;96903.22;;;0.91;85.81
27712;BME280;2377;51.734;8.950;2024-01-16T12:43:00;96900.19;;;0.95;86.20
27712;BME280;2377;51.734;8.950;2024-01-16T12:45:29;96899.50;;;1.01;85.49
27712;BME280;2377;51.734;8.950;2024-01-16T12:47:57;96888.31;;;0.89;86.36
27712;BME280;2377;51.734;8.950;2024-01-16T12:50:27;96880.19;;;0.87;86.62
27712;BME280;2377;51.734;8.950;2024-01-16T12:53:05;96877.81;;;0.86;87.14
27712;BME280;2377;51.734;8.950;2024-01-16T12:55:34;96867.00;;;0.85;86.77
27712;BME280;2377;51.734;8.950;2024-01-16T12:58:19;96867.69;;;0.79;86.04
27712;BME280;2377;51.734;8.950;2024-01-16T13:00:50;96862.19;;;0.60;85.78
27712;BME280;2377;51.734;8.950;2024-01-16T13:03:19;96862.31;;;0.67;86.18
27712;BME280;2377;51.734;8.950;2024-01-16T13:05:55;96857.72;;;0.71;85.68
27712;BME280;2377;51.734;8.950;2024-01-16T13:08:23;96861.94;;;0.70;86.26
27712;BME280;2377;51.734;8.950;2024-01-16T13:11:02;96866.56;;;0.67;86.53
27712;BME280;2377;51.734;8.950;2024-01-16T13:13:30;96856.13;;;0.70;86.21
27712;BME280;2377;51.734;8.950;2024-01-16T13:16:00;96861.53;;;0.67;86.73
27712;BME280;2377;51.734;8.950;2024-01-16T13:18:29;96859.28;;;0.72;87.06
27712;BME280;2377;51.734;8.950;2024-01-16T13:20:58;96864.56;;;0.62;85.94
27712;BME280;2377;51.734;8.950;2024-01-16T13:23:27;96858.66;;;0.70;86.38